Time;durP1;ratioP1;P1;durP2;ratioP2;P2;SDS_P1;SDS_P2;PMS_P1;PMS_P2;Temp;Humidity;BMP_temperature;BMP_pressure;BME280_temperature;BME280_humidity;BME280_pressure;Samples;Min_cycle;Max_cycle;Signal;HPM_P1;HPM_P2
2022/03/23 00:01:38;;;;;;;7.22;2.00;;;;;;;4.26;62.17;98120.06;5023712;28;20056;-63
2022/03/23 00:04:05;;;;;;;5.55;1.58;;;;;;;3.84;61.72;98101.09;5022394;28;20060;-55
2022/03/23 00:06:33;;;;;;;10.93;1.58;;;;;;;4.60;61.18;98136.94;5023473;28;20045;-63
2022/03/23 00:09:00;;;;;;;10.30;2.13;;;;;;;4.65;60.32;98139.59;5024090;28;20065;-55
2022/03/23 00:11:27;;;;;;;4.57;2.00;;;;;;;4.28;59.74;98052.00;5023581;28;20137;-55
2022/03/23 00:13:57;;;;;;;9.60;2.38;;;;;;;4.76;60.38;98188.78;5023721;28;20049;-63
2022/03/23 00:16:24;;;;;;;5.25;2.00;;;;;;;4.74;59.86;98136.13;5023771;28;20535;-63
2022/03/23 00:18:51;;;;;;;5.53;1.77;;;;;;;4.68;59.74;98129.13;5023282;28;20506;-63
2022/03/23 00:21:17;;;;;;;3.83;1.70;;;;;;;4.55;60.09;98106.84;5023309;28;20057;-62
2022/03/23 00:23:44;;;;;;;4.00;1.70;;;;;;;4.68;59.85;98132.66;5009980;28;20062;-63
2022/03/23 00:26:15;;;;;;;8.40;1.90;;;;;;;4.73;59.26;98126.28;5002501;28;20110;-63
2022/03/23 00:28:42;;;;;;;6.07;1.75;;;;;;;4.74;59.69;98125.16;5003699;28;21045;-55
2022/03/23 00:31:09;;;;;;;7.40;2.03;;;;;;;4.84;59.35;98124.94;5003922;28;20077;-63
2022/03/23 00:33:36;;;;;;;5.93;1.55;;;;;;;4.62;58.25;98063.38;5003744;28;20053;-63
2022/03/23 00:36:06;;;;;;;5.60;2.28;;;;;;;4.95;58.20;98109.88;5003795;28;20054;-57
2022/03/23 00:38:34;;;;;;;5.47;2.28;;;;;;;5.04;57.17;98106.09;5003809;28;20050;-55
2022/03/23 00:41:01;;;;;;;7.70;2.20;;;;;;;4.82;57.04;98073.06;5003504;28;20050;-64
2022/03/23 00:43:28;;;;;;;9.45;1.83;;;;;;;5.01;56.97;98119.63;5004063;28;20049;-63
2022/03/23 00:45:55;;;;;;;5.03;2.13;;;;;;;5.06;57.36;98119.53;5002676;28;20057;-56
2022/03/23 00:48:22;;;;;;;10.07;2.72;;;;;;;4.89;57.16;98083.63;5019029;28;20456;-55
2022/03/23 00:50:49;;;;;;;6.70;2.22;;;;;;;5.02;57.37;98121.22;5003573;28;20064;-56
2022/03/23 00:53:17;;;;;;;8.82;2.28;;;;;;;4.94;56.94;98119.22;5003849;28;20092;-58
2022/03/23 00:55:44;;;;;;;10.98;2.90;;;;;;;5.01;57.11;98114.91;5002241;28;20516;-55
2022/03/23 00:58:11;;;;;;;4.18;1.90;;;;;;;5.08;56.01;98114.50;5002414;28;20041;-63
2022/03/23 01:00:37;;;;;;;10.05;2.53;;;;;;;4.80;57.14;98101.97;5003552;28;20053;-63
2022/03/23 01:03:04;;;;;;;3.80;1.45;;;;;;;5.03;55.85;98122.84;5003604;28;20422;-63
2022/03/23 01:05:31;;;;;;;7.53;2.08;;;;;;;5.00;56.40;98129.78;5002136;28;20053;-63
2022/03/23 01:07:58;;;;;;;3.92;1.73;;;;;;;4.92;56.37;98115.97;5003445;28;20057;-56
2022/03/23 01:10:25;;;;;;;4.88;2.33;;;;;;;4.73;56.02;98090.59;5006697;28;20153;-57
2022/03/23 01:12:54;;;;;;;6.70;2.10;;;;;;;4.86;56.08;98082.34;5005886;28;20436;-56
2022/03/23 01:15:21;;;;;;;6.35;2.55;;;;;;;5.19;56.38;98119.47;5007111;28;20045;-62
2022/03/23 01:17:49;;;;;;;10.35;2.42;;;;;;;5.31;56.41;98122.47;5007163;28;20343;-63
2022/03/23 01:20:17;;;;;;;10.18;2.40;;;;;;;5.30;56.44;98122.78;5007043;28;20084;-55
2022/03/23 01:22:44;;;;;;;9.48;2.80;;;;;;;4.95;56.37;98072.25;5011995;28;20080;-55
2022/03/23 01:25:15;;;;;;;10.57;2.35;;;;;;;4.94;56.26;98042.34;5027000;28;20064;-63
2022/03/23 01:27:43;;;;;;;7.45;2.00;;;;;;;5.33;56.72;98124.91;5026483;28;20060;-56
2022/03/23 01:30:12;;;;;;;10.50;2.85;;;;;;;5.29;57.26;98122.00;5026053;28;20081;-58
2022/03/23 01:32:40;;;;;;;8.77;2.55;;;;;;;5.03;56.87;98062.44;5026711;28;20057;-63
2022/03/23 01:35:08;;;;;;;6.95;2.25;;;;;;;5.34;55.60;98096.34;5026443;28;20053;-57
2022/03/23 01:37:35;;;;;;;8.23;2.10;;;;;;;5.21;57.27;98108.16;5026378;28;20431;-56
2022/03/23 01:40:04;;;;;;;9.18;2.58;;;;;;;4.83;56.20;98068.41;5026280;28;20045;-55
2022/03/23 01:42:31;;;;;;;10.32;2.20;;;;;;;5.23;56.99;98101.22;5026571;28;20060;-57
2022/03/23 01:44:57;;;;;;;10.95;2.97;;;;;;;5.06;57.36;98105.78;5026505;28;20512;-64
2022/03/23 01:47:24;;;;;;;13.57;3.63;;;;;;;5.04;57.32;98102.53;5025402;28;20064;-55
2022/03/23 01:49:54;;;;;;;14.18;3.00;;;;;;;4.89;58.06;98094.63;5024768;28;20523;-55
2022/03/23 01:52:23;;;;;;;11.65;3.55;;;;;;;4.93;58.21;98107.44;5025932;28;20064;-55
2022/03/23 01:54:51;;;;;;;7.78;2.20;;;;;;;4.71;58.74;98076.38;5026273;28;20049;-63
2022/03/23 01:57:19;;;;;;;7.55;2.35;;;;;;;4.99;56.34;98099.91;5024517;28;20045;-55
2022/03/23 01:59:46;;;;;;;10.60;3.35;;;;;;;5.01;55.80;98100.41;5025936;28;20061;-63
2022/03/23 02:02:13;;;;;;;9.10;2.50;;;;;;;4.95;56.94;98098.91;5025598;28;20064;-63
2022/03/23 02:04:41;;;;;;;12.25;2.33;;;;;;;4.98;56.82;98098.28;5025649;28;20146;-63
2022/03/23 02:07:07;;;;;;;12.05;2.53;;;;;;;5.08;56.94;98109.00;5025765;28;20707;-63
2022/03/23 02:09:34;;;;;;;5.75;2.20;;;;;;;5.15;57.26;98095.69;5026343;28;20061;-55
2022/03/23 02:12:03;;;;;;;8.27;2.72;;;;;;;5.12;56.68;98099.06;5025934;28;20049;-62
2022/03/23 02:14:29;;;;;;;7.53;2.22;;;;;;;5.16;57.05;98095.38;5025613;28;20059;-56
2022/03/23 02:16:56;;;;;;;8.07;2.00;;;;;;;4.63;56.78;98026.56;5025939;28;20417;-56
2022/03/23 02:19:23;;;;;;;10.13;2.67;;;;;;;5.09;57.13;98105.16;5023871;28;20052;-63
2022/03/23 02:21:54;;;;;;;5.50;2.08;;;;;;;5.12;57.47;98094.34;5025516;28;20053;-63
2022/03/23 02:24:26;;;;;;;10.18;3.08;;;;;;;5.09;57.72;98096.94;5006898;28;20058;-58
2022/03/23 02:26:54;;;;;;;11.57;3.60;;;;;;;5.04;58.05;98094.28;5006028;28;20057;-55
2022/03/23 02:29:24;;;;;;;4.50;2.10;;;;;;;5.03;58.04;98089.91;5003985;28;20057;-56
2022/03/23 02:31:50;;;;;;;7.88;2.13;;;;;;;4.95;56.19;98098.91;5005709;28;20072;-54
2022/03/23 02:34:18;;;;;;;10.63;3.63;;;;;;;4.90;56.59;98090.78;5005283;28;20520;-63
2022/03/23 02:36:44;;;;;;;7.43;2.47;;;;;;;4.78;56.06;98087.72;5005743;28;20057;-63
2022/03/23 02:39:12;;;;;;;4.10;1.73;;;;;;;4.84;56.40;98092.00;5004036;28;20827;-63
2022/03/23 02:41:39;;;;;;;8.15;2.63;;;;;;;4.74;56.46;98086.72;5005137;28;20056;-57
2022/03/23 02:44:06;;;;;;;12.93;3.72;;;;;;;4.77;56.43;98084.19;5005894;28;20050;-63
2022/03/23 02:46:35;;;;;;;10.10;3.50;;;;;;;4.65;56.47;98084.69;5004081;28;20064;-63
2022/03/23 02:49:05;;;;;;;5.82;2.63;;;;;;;4.77;57.38;98086.09;5003845;28;20069;-63
2022/03/23 02:51:32;;;;;;;8.00;2.15;;;;;;;4.54;57.23;98086.03;5005071;28;20046;-59
2022/03/23 03:02:43;;;;;;;6.95;2.00;;;;;;;4.32;57.95;98077.72;5005312;28;20054;-55
2022/03/23 03:05:11;;;;;;;4.38;1.63;;;;;;;4.47;57.37;98099.34;5005395;28;20088;-63
2022/03/23 03:10:25;;;;;;;6.88;1.52;;;;;;;4.46;57.88;98091.41;5005025;28;20050;-63
2022/03/23 03:12:53;;;;;;;6.57;1.73;;;;;;;4.37;58.34;98080.34;5004720;28;20058;-56
2022/03/23 03:15:21;;;;;;;10.45;2.30;;;;;;;4.08;57.62;98033.22;5004889;28;20493;-55
2022/03/23 03:17:47;;;;;;;6.13;1.63;;;;;;;3.98;57.29;98007.94;5004876;28;20054;-57
2022/03/23 03:20:15;;;;;;;7.68;2.53;;;;;;;4.29;57.91;98070.09;5004884;28;20054;-55
2022/03/23 03:22:45;;;;;;;3.78;1.73;;;;;;;4.48;57.19;98073.53;5008965;28;20224;-63
2022/03/23 03:25:15;;;;;;;7.20;2.63;;;;;;;4.50;57.03;98081.47;5022977;28;20053;-55
2022/03/23 03:27:43;;;;;;;6.65;2.20;;;;;;;4.69;55.00;98074.72;5024269;28;20054;-63
2022/03/23 03:30:12;;;;;;;4.85;2.10;;;;;;;4.27;56.02;98031.19;5024431;28;20065;-55
2022/03/23 03:32:40;;;;;;;5.35;1.90;;;;;;;4.66;55.92;98075.34;5023709;28;20058;-54
2022/03/23 03:35:13;;;;;;;4.78;2.13;;;;;;;4.68;55.40;98078.59;5024347;28;20057;-54
2022/03/23 03:37:40;;;;;;;9.32;2.35;;;;;;;4.66;56.51;98080.81;5024189;28;20057;-55
2022/03/23 03:40:08;;;;;;;7.05;2.08;;;;;;;4.73;56.56;98080.41;5024554;28;20050;-54
2022/03/23 03:42:35;;;;;;;5.15;1.95;;;;;;;4.51;56.63;98053.72;5024198;28;20057;-57
2022/03/23 03:45:05;;;;;;;6.78;2.75;;;;;;;4.22;56.73;98017.56;5024037;28;20475;-54
2022/03/23 03:47:32;;;;;;;4.53;1.90;;;;;;;4.44;57.81;98060.75;5024327;28;20258;-62
2022/03/23 03:49:59;;;;;;;4.53;2.05;;;;;;;4.42;57.06;98074.78;5024147;28;20409;-55
2022/03/23 03:52:26;;;;;;;5.93;1.65;;;;;;;4.42;57.66;98072.03;5023996;28;20059;-55
2022/03/23 03:54:52;;;;;;;5.72;1.38;;;;;;;4.45;57.77;98096.09;5022825;28;20502;-55
2022/03/23 03:57:19;;;;;;;5.10;1.77;;;;;;;4.42;56.60;98066.53;5024419;28;20440;-63
2022/03/23 03:59:45;;;;;;;6.28;2.22;;;;;;;4.44;56.56;98071.72;5024087;28;20054;-63
2022/03/23 04:02:14;;;;;;;8.73;2.85;;;;;;;4.43;56.99;98059.94;5023380;28;20057;-63
2022/03/23 04:04:41;;;;;;;4.63;1.85;;;;;;;4.49;56.65;98053.22;5023684;28;20064;-55
2022/03/23 04:07:07;;;;;;;8.18;1.90;;;;;;;4.60;56.33;98054.63;5024126;28;20050;-63
2022/03/23 04:09:34;;;;;;;7.88;2.28;;;;;;;4.50;56.48;98071.28;5023731;28;20075;-56
2022/03/23 04:12:01;;;;;;;4.63;1.77;;;;;;;4.54;55.78;98061.34;5021986;28;20378;-55
2022/03/23 04:14:28;;;;;;;4.25;1.67;;;;;;;4.25;55.76;98003.25;5023664;28;20046;-56
2022/03/23 04:16:55;;;;;;;8.82;2.17;;;;;;;4.57;56.41;98076.38;5023229;28;20053;-63
2022/03/23 04:19:21;;;;;;;3.55;1.65;;;;;;;4.33;55.87;98027.22;5023904;28;20053;-64
2022/03/23 04:21:48;;;;;;;3.90;1.88;;;;;;;4.48;56.84;98081.78;5023730;28;20049;-55
2022/03/23 04:24:15;;;;;;;5.20;2.40;;;;;;;4.52;56.35;98074.53;5018015;28;20069;-56
2022/03/23 04:26:44;;;;;;;6.20;2.50;;;;;;;4.72;55.46;98077.97;5003732;28;20058;-56
2022/03/23 04:29:11;;;;;;;6.90;2.42;;;;;;;4.73;55.29;98065.91;5003692;28;20058;-63
2022/03/23 04:31:38;;;;;;;7.40;2.40;;;;;;;4.65;54.97;98081.97;5003913;28;20083;-63
2022/03/23 04:34:05;;;;;;;7.57;2.10;;;;;;;4.42;55.16;98019.09;5003750;28;20056;-55
2022/03/23 04:36:32;;;;;;;4.90;2.40;;;;;;;4.01;55.05;97942.38;5003841;28;20144;-56
2022/03/23 04:38:59;;;;;;;8.73;2.42;;;;;;;4.87;55.30;98069.44;5002198;28;20046;-64
2022/03/23 04:41:26;;;;;;;7.80;3.22;;;;;;;4.39;55.12;98015.00;5003634;28;20056;-62
2022/03/23 04:43:52;;;;;;;7.45;2.17;;;;;;;4.81;54.60;98054.16;5006130;28;20424;-63
2022/03/23 04:46:19;;;;;;;9.50;2.45;;;;;;;4.04;54.28;97930.78;5007594;28;20065;-56
2022/03/23 04:48:46;;;;;;;7.15;2.45;;;;;;;4.85;54.05;98060.69;5007547;28;20501;-54
2022/03/23 04:51:13;;;;;;;6.78;2.53;;;;;;;3.63;53.80;97856.03;5007370;28;20056;-55
2022/03/23 04:53:39;;;;;;;8.23;3.05;;;;;;;4.93;54.00;98073.69;5007304;28;20616;-55
2022/03/23 04:56:07;;;;;;;7.20;2.33;;;;;;;5.04;54.09;98072.31;5007908;28;20050;-56
2022/03/23 04:58:34;;;;;;;6.65;2.50;;;;;;;4.97;54.29;98064.50;5007588;28;20555;-55
2022/03/23 05:01:02;;;;;;;6.30;2.55;;;;;;;5.15;53.28;98068.22;5007305;28;20440;-55
2022/03/23 05:03:29;;;;;;;5.00;2.35;;;;;;;4.83;52.74;98008.03;5007034;28;20081;-55
2022/03/23 05:05:56;;;;;;;8.43;2.42;;;;;;;5.24;52.58;98069.91;5005530;28;20100;-64
2022/03/23 05:08:23;;;;;;;7.38;2.20;;;;;;;5.30;52.05;98067.84;5006916;28;20045;-57
2022/03/23 05:10:51;;;;;;;7.30;2.40;;;;;;;5.33;50.25;98065.28;5007004;28;20398;-64
2022/03/23 05:13:17;;;;;;;5.03;2.22;;;;;;;5.49;50.84;98071.22;5007089;28;20045;-64
2022/03/23 05:15:44;;;;;;;6.70;1.88;;;;;;;5.46;50.69;98071.84;5005564;28;20049;-65
2022/03/23 05:18:12;;;;;;;5.22;2.22;;;;;;;5.55;50.25;98078.22;5007218;28;20077;-55
2022/03/23 05:20:39;;;;;;;3.78;1.65;;;;;;;5.67;49.04;98072.97;5005449;28;20137;-64
2022/03/23 05:23:06;;;;;;;7.65;2.60;;;;;;;5.81;49.09;98114.94;5006633;28;20065;-59
2022/03/23 05:25:33;;;;;;;6.70;1.90;;;;;;;5.64;48.91;98084.59;5006495;28;20060;-55
2022/03/23 05:28:00;;;;;;;8.15;2.30;;;;;;;5.66;49.18;98071.34;5006795;28;20046;-64
2022/03/23 05:30:27;;;;;;;3.80;2.00;;;;;;;5.88;48.55;98101.63;5006789;28;20054;-65
2022/03/23 05:32:53;;;;;;;5.70;2.13;;;;;;;5.79;48.07;98103.44;5005984;28;20049;-56
2022/03/23 05:35:20;;;;;;;10.82;2.40;;;;;;;5.88;47.66;98096.13;5010682;28;20522;-65
2022/03/23 05:37:47;;;;;;;3.03;1.25;;;;;;;5.37;47.90;98013.28;5024562;28;20060;-55
2022/03/23 05:40:13;;;;;;;11.98;2.45;;;;;;;6.09;47.16;98102.69;5026208;28;20060;-57
2022/03/23 05:42:40;;;;;;;18.50;3.78;;;;;;;6.16;46.60;98105.81;5026180;28;20088;-56
2022/03/23 05:45:08;;;;;;;2.08;1.38;;;;;;;6.03;47.15;98106.72;5026347;28;20053;-64
2022/03/23 05:47:37;;;;;;;5.68;2.70;;;;;;;6.21;47.42;98105.69;5024876;28;20056;-55
2022/03/23 05:50:05;;;;;;;6.88;2.63;;;;;;;6.36;46.07;98101.69;5026099;28;20049;-65
2022/03/23 05:52:31;;;;;;;12.93;2.70;;;;;;;6.51;45.32;98110.34;5026051;28;20053;-56
2022/03/23 05:54:58;;;;;;;5.50;1.92;;;;;;;6.18;45.96;98079.59;5023846;28;20053;-65
2022/03/23 05:57:25;;;;;;;7.57;2.22;;;;;;;6.67;45.84;98103.25;5025980;28;20135;-55
2022/03/23 05:59:51;;;;;;;4.63;2.75;;;;;;;6.76;46.04;98112.38;5024443;28;20065;-65
2022/03/23 06:02:18;;;;;;;7.57;2.60;;;;;;;6.96;44.60;98117.28;5025118;28;20060;-65
2022/03/23 06:04:46;;;;;;;5.85;1.90;;;;;;;6.98;44.01;98122.47;5025546;28;20045;-56
2022/03/23 06:07:12;;;;;;;7.88;2.20;;;;;;;6.62;43.69;98084.16;5025452;28;20053;-57
2022/03/23 06:09:39;;;;;;;7.00;2.38;;;;;;;7.06;44.38;98117.00;5023813;28;20532;-65
2022/03/23 06:12:11;;;;;;;8.38;2.38;;;;;;;7.16;43.92;98127.69;5023757;28;20516;-65
2022/03/23 06:14:42;;;;;;;6.45;2.00;;;;;;;7.17;42.75;98112.78;5023826;28;20053;-55
2022/03/23 06:17:09;;;;;;;3.90;1.80;;;;;;;7.16;42.63;98111.16;5025485;28;20053;-55
2022/03/23 06:19:36;;;;;;;3.40;1.77;;;;;;;7.35;42.50;98141.97;5025521;28;20534;-56
2022/03/23 06:22:05;;;;;;;7.28;2.20;;;;;;;7.33;41.86;98138.72;5025471;28;20053;-66
2022/03/23 06:24:32;;;;;;;3.67;1.98;;;;;;;6.95;42.30;98085.38;5008613;28;20057;-65
2022/03/23 06:26:59;;;;;;;7.63;2.75;;;;;;;7.04;42.89;98108.22;5006099;28;20054;-66
2022/03/23 06:29:26;;;;;;;8.48;2.33;;;;;;;7.27;42.56;98101.44;5005565;28;20050;-66
2022/03/23 06:31:53;;;;;;;5.38;1.88;;;;;;;7.35;42.88;98130.94;5005691;28;20086;-65
2022/03/23 06:34:21;;;;;;;7.15;2.50;;;;;;;7.35;42.21;98135.66;5003957;28;20140;-65
2022/03/23 06:36:47;;;;;;;4.07;1.90;;;;;;;6.67;41.87;98033.66;5005473;28;20060;-57
2022/03/23 06:39:14;;;;;;;6.25;2.33;;;;;;;7.31;42.05;98135.50;5005300;28;20062;-66
2022/03/23 06:41:41;;;;;;;6.60;2.25;;;;;;;7.24;41.50;98104.84;5004590;28;20056;-65
2022/03/23 06:44:08;;;;;;;13.10;2.92;;;;;;;7.26;41.34;98055.72;5003794;28;20076;-65
2022/03/23 06:46:34;;;;;;;5.55;2.67;;;;;;;7.43;42.09;98143.94;5005192;28;20078;-55
2022/03/23 06:49:01;;;;;;;7.88;2.42;;;;;;;7.20;41.47;98079.09;5005205;28;20057;-65
2022/03/23 06:51:28;;;;;;;8.35;2.30;;;;;;;6.98;41.00;97999.34;5004813;28;20046;-54
2022/03/23 06:53:55;;;;;;;3.25;1.70;;;;;;;7.62;40.87;98125.13;5013593;28;20057;-68
2022/03/23 06:56:21;;;;;;;5.85;2.08;;;;;;;7.27;41.38;98090.41;5012467;28;20436;-69
2022/03/23 06:58:48;;;;;;;5.00;2.22;;;;;;;7.84;40.38;98148.16;5012322;28;20069;-57
2022/03/23 07:01:14;;;;;;;6.25;2.60;;;;;;;7.52;40.85;98075.81;5012471;28;20056;-66
2022/03/23 07:03:41;;;;;;;2.97;1.77;;;;;;;7.89;40.62;98140.53;5016893;28;20516;-55
2022/03/23 07:06:08;;;;;;;4.88;2.05;;;;;;;6.95;41.15;98005.50;5012039;28;20432;-58
2022/03/23 07:11:20;;;;;;;4.38;2.53;;;;;;;7.36;40.70;98038.06;5015570;28;20052;-55
2022/03/23 07:13:47;;;;;;;8.05;2.97;;;;;;;8.17;40.68;98140.97;5014443;28;20381;-63
2022/03/23 07:16:14;;;;;;;5.00;2.70;;;;;;;7.85;40.23;98089.09;5004007;28;20122;-60
2022/03/23 07:18:41;;;;;;;6.78;3.00;;;;;;;8.52;40.01;98142.53;5008820;28;20085;-58
2022/03/23 07:21:07;;;;;;;3.95;2.17;;;;;;;8.49;39.77;98143.16;5016769;28;20049;-64
2022/03/23 07:23:35;;;;;;;4.05;2.75;;;;;;;8.74;39.93;98156.09;5011356;28;20084;-61
2022/03/23 07:26:03;;;;;;;4.72;3.03;;;;;;;8.03;39.29;98082.41;5011318;28;20409;-69
2022/03/23 07:28:31;;;;;;;7.35;2.85;;;;;;;8.73;39.29;98137.88;5012529;28;20473;-59
2022/03/23 07:30:59;;;;;;;12.35;2.80;;;;;;;8.73;38.42;98154.47;5011995;28;20144;-57
2022/03/23 07:33:28;;;;;;;5.57;2.90;;;;;;;8.80;39.11;98157.53;5004344;28;20536;-57
2022/03/23 07:35:55;;;;;;;4.15;2.35;;;;;;;8.52;38.83;98148.06;5005114;28;20104;-68
2022/03/23 07:38:22;;;;;;;7.90;2.85;;;;;;;8.97;38.61;98165.72;5020555;28;20049;-70
2022/03/23 07:40:49;;;;;;;9.55;2.55;;;;;;;8.96;38.50;98148.34;5009984;28;20114;-62
2022/03/23 07:43:16;;;;;;;10.45;2.65;;;;;;;8.98;37.77;98136.94;5016933;28;20511;-67
2022/03/23 07:45:44;;;;;;;10.02;3.58;;;;;;;8.61;37.92;98101.88;5012757;28;20058;-65
2022/03/23 07:48:11;;;;;;;7.07;2.00;;;;;;;9.17;37.90;98209.19;5019463;28;20045;-65
2022/03/23 07:50:38;;;;;;;4.18;2.15;;;;;;;9.03;37.30;98131.25;5002709;28;20123;-64
2022/03/23 07:53:04;;;;;;;6.18;2.80;;;;;;;8.60;37.50;98072.66;5017195;28;20053;-64
2022/03/23 07:55:31;;;;;;;4.18;2.28;;;;;;;8.90;37.99;98121.22;5017025;28;20057;-58
2022/03/23 07:57:58;;;;;;;4.75;2.55;;;;;;;9.29;37.16;98123.59;5015003;28;20076;-66
2022/03/23 08:00:24;;;;;;;7.18;2.22;;;;;;;9.00;37.84;98124.44;5018083;28;20049;-59
2022/03/23 08:02:51;;;;;;;7.25;2.58;;;;;;;9.14;37.50;98132.47;5019067;28;20880;-55
2022/03/23 08:05:18;;;;;;;4.57;2.72;;;;;;;8.73;37.98;98088.16;5009219;28;20045;-56
2022/03/23 08:07:45;;;;;;;5.47;2.45;;;;;;;8.98;37.98;98117.59;5015487;28;20061;-69
2022/03/23 08:10:12;;;;;;;6.80;3.28;;;;;;;8.31;37.95;98047.75;5010402;28;20054;-63
2022/03/23 08:12:39;;;;;;;5.82;2.33;;;;;;;8.97;37.79;98122.34;5015445;28;20068;-68
2022/03/23 08:15:07;;;;;;;7.30;2.60;;;;;;;9.13;37.81;98147.44;5015338;28;20057;-57
2022/03/23 08:17:34;;;;;;;6.53;2.70;;;;;;;8.49;37.02;98024.44;5002138;28;20127;-71
2022/03/23 08:22:50;;;;;;;7.75;2.05;;;;;;;8.36;38.57;98028.25;5008678;28;20112;-57
2022/03/23 08:25:17;;;;;;;3.92;1.95;;;;;;;9.04;36.76;98121.81;5002892;28;20065;-57
2022/03/23 08:27:45;;;;;;;7.13;2.40;;;;;;;8.45;37.31;98117.38;5001423;28;20144;-58
2022/03/23 08:30:12;;;;;;;5.40;2.15;;;;;;;8.32;37.73;98132.19;5018508;28;20499;-57
2022/03/23 08:32:39;;;;;;;4.72;2.42;;;;;;;8.46;36.97;98110.69;5009041;28;20053;-56
2022/03/23 08:35:06;;;;;;;11.57;3.42;;;;;;;8.50;37.87;98108.91;5012677;28;20610;-70
2022/03/23 08:37:33;;;;;;;4.43;2.08;;;;;;;8.82;37.35;98109.09;5010496;28;20057;-58
2022/03/23 08:40:00;;;;;;;5.65;2.92;;;;;;;8.86;37.07;98112.00;5004265;28;20052;-71
2022/03/23 08:42:26;;;;;;;9.27;2.80;;;;;;;9.05;37.06;98074.50;5006133;28;20124;-58
2022/03/23 08:44:53;;;;;;;3.88;2.45;;;;;;;9.15;37.09;98073.31;5003690;28;20049;-78
2022/03/23 08:47:20;;;;;;;7.70;3.00;;;;;;;9.37;37.53;98097.03;5008685;28;20054;-78
2022/03/23 08:49:47;;;;;;;11.15;3.47;;;;;;;9.43;37.38;98085.44;5012897;28;20139;-71
2022/03/23 08:52:13;;;;;;;2.58;1.83;;;;;;;9.02;37.15;98096.47;5003006;28;20050;-73
2022/03/23 08:54:40;;;;;;;7.47;2.60;;;;;;;8.88;38.12;98071.81;5005121;28;20493;-67
2022/03/23 08:57:07;;;;;;;6.63;3.38;;;;;;;8.56;38.15;97991.59;5020872;28;20060;-57
2022/03/23 08:59:34;;;;;;;5.82;2.42;;;;;;;8.88;38.39;98079.31;5022390;28;20049;-58
2022/03/23 09:02:01;;;;;;;7.03;2.92;;;;;;;9.16;38.60;98070.19;5019059;28;20067;-69
2022/03/23 09:04:28;;;;;;;6.45;3.65;;;;;;;8.94;38.16;98036.53;5003039;28;20050;-66
2022/03/23 09:06:54;;;;;;;8.23;3.20;;;;;;;9.00;38.15;98004.78;5000815;28;20061;-64
2022/03/23 09:09:21;;;;;;;7.13;3.25;;;;;;;9.52;37.81;98072.34;5003819;28;20056;-56
2022/03/23 09:11:48;;;;;;;7.55;3.72;;;;;;;9.43;37.13;98013.53;5015807;28;20049;-68
2022/03/23 09:14:14;;;;;;;6.82;2.90;;;;;;;9.31;38.36;98029.28;5010709;28;20545;-76
2022/03/23 09:16:41;;;;;;;5.25;2.92;;;;;;;9.69;37.48;98063.88;5012705;28;20061;-57
2022/03/23 09:19:09;;;;;;;8.75;3.10;;;;;;;10.00;37.54;98067.00;5009291;28;20084;-57
2022/03/23 09:21:38;;;;;;;4.05;3.28;;;;;;;9.76;37.84;98033.72;5000986;28;20432;-67
2022/03/23 09:24:09;;;;;;;10.02;4.00;;;;;;;10.30;37.13;98068.50;5012777;28;20062;-74
2022/03/23 09:26:36;;;;;;;7.55;3.53;;;;;;;10.03;37.36;98076.59;5016988;28;20053;-59
2022/03/23 09:29:03;;;;;;;6.10;3.15;;;;;;;9.45;37.47;98016.78;5005579;28;20064;-69
2022/03/23 09:31:30;;;;;;;4.93;3.13;;;;;;;9.78;37.27;98025.91;5011610;28;21192;-56
2022/03/23 09:33:57;;;;;;;9.75;3.63;;;;;;;9.95;36.97;98047.84;5024588;28;20049;-57
2022/03/23 09:39:09;;;;;;;7.10;3.40;;;;;;;10.09;37.17;98029.00;5025514;28;20067;-57
2022/03/23 09:41:35;;;;;;;8.52;3.47;;;;;;;9.92;36.84;98048.53;5017996;28;20046;-70
2022/03/23 09:44:03;;;;;;;6.72;3.55;;;;;;;10.05;37.38;98046.59;5009651;28;20509;-56
2022/03/23 09:46:32;;;;;;;8.43;3.70;;;;;;;9.96;36.79;97988.56;5007504;28;20058;-64
2022/03/23 09:49:00;;;;;;;6.10;3.42;;;;;;;10.23;36.66;98039.75;5004961;28;20097;-67
2022/03/23 09:51:31;;;;;;;5.68;2.95;;;;;;;9.68;37.54;98034.63;5013539;28;20571;-55
2022/03/23 09:53:59;;;;;;;9.45;3.22;;;;;;;9.95;37.02;98036.78;5009265;28;20153;-56
2022/03/23 09:56:26;;;;;;;10.90;2.55;;;;;;;10.19;36.43;98023.03;5008849;28;20069;-74
2022/03/23 09:58:53;;;;;;;7.15;3.00;;;;;;;10.13;36.48;98032.69;5005393;28;20073;-56
2022/03/23 10:01:28;;;;;;;9.25;3.20;;;;;;;10.12;36.08;98100.28;5010818;28;20049;-56
2022/03/23 10:04:11;;;;;;;6.88;3.25;;;;;;;10.28;35.61;98020.13;5013257;28;20451;-55
2022/03/23 10:06:59;;;;;;;10.45;3.42;;;;;;;10.25;36.95;98018.88;5005502;28;20123;-68
2022/03/23 10:09:26;;;;;;;3.45;2.80;;;;;;;10.37;36.45;98041.03;5004080;28;20053;-56
2022/03/23 10:12:30;;;;;;;6.07;3.00;;;;;;;10.68;35.77;98010.78;5005844;28;20412;-67
2022/03/23 10:15:09;;;;;;;;;;;;;;;10.83;33.33;98002.94;5013571;28;20061;-57
2022/03/23 10:17:44;;;;;;;6.10;2.97;;;;;;;10.82;34.45;98015.16;5024708;28;19925;-56
2022/03/23 10:20:12;;;;;;;7.38;3.22;;;;;;;10.87;34.36;97995.53;5019759;28;20085;-57
2022/03/23 10:22:50;;;;;;;6.65;3.42;;;;;;;10.80;33.57;98003.63;5005212;28;20077;-67
2022/03/23 10:25:19;;;;;;;3.55;2.45;;;;;;;10.83;33.52;98022.34;5007564;28;20050;-68
2022/03/23 10:27:46;;;;;;;6.95;3.22;;;;;;;11.16;32.81;98003.56;5004397;28;20057;-69
2022/03/23 10:30:14;;;;;;;8.30;3.25;;;;;;;11.17;31.32;98005.19;5009184;28;20050;-55
2022/03/23 10:32:44;;;;;;;6.95;2.72;;;;;;;11.41;32.13;97994.00;5011080;28;20050;-56
2022/03/23 10:35:16;;;;;;;6.90;2.97;;;;;;;11.59;31.87;97990.56;5010405;28;20046;-69
2022/03/23 10:37:43;;;;;;;5.53;2.70;;;;;;;11.27;31.97;97993.59;5012526;28;20129;-58
2022/03/23 10:40:14;;;;;;;4.75;2.90;;;;;;;11.22;31.41;98007.72;5018858;28;20049;-56
2022/03/23 10:42:43;;;;;;;7.32;2.83;;;;;;;11.02;32.12;98003.16;5023239;28;20049;-71
2022/03/23 10:45:18;;;;;;;6.75;2.65;;;;;;;11.24;31.60;97983.22;5015909;28;20145;-67
2022/03/23 10:47:46;;;;;;;4.20;2.33;;;;;;;10.99;30.98;97932.56;5022971;28;20058;-63
2022/03/23 10:50:19;;;;;;;8.23;3.20;;;;;;;11.26;30.35;97980.88;5022661;28;20899;-66
2022/03/23 10:52:52;;;;;;;5.90;2.67;;;;;;;11.41;29.29;97977.38;5009321;28;20077;-56
2022/03/23 10:55:20;;;;;;;4.22;2.65;;;;;;;11.24;29.23;97999.84;5004920;28;20050;-66
2022/03/23 10:57:50;;;;;;;3.13;2.10;;;;;;;10.96;29.80;97983.16;5002708;28;20442;-66
2022/03/23 11:00:27;;;;;;;6.90;2.97;;;;;;;11.14;30.25;97969.84;5002853;28;20558;-65
2022/03/23 11:02:53;;;;;;;4.97;2.17;;;;;;;11.51;30.47;97972.09;5004278;28;20137;-66
2022/03/23 11:05:37;;;;;;;3.10;1.98;;;;;;;11.05;29.28;97969.19;5003230;28;20046;-57
2022/03/23 11:08:25;;;;;;;3.83;2.75;;;;;;;11.35;30.42;97970.47;5003000;28;20068;-57
2022/03/23 11:16:39;;;;;;;10.45;2.50;;;;;;;10.98;29.17;97896.88;5023546;28;20515;-67
2022/03/23 11:19:07;;;;;;;2.38;2.13;;;;;;;11.50;30.21;97951.09;5023842;28;20081;-57
2022/03/23 11:21:58;;;;;;;4.38;2.60;;;;;;;11.54;29.82;97959.50;5024253;28;20057;-57
2022/03/23 11:24:27;;;;;;;11.48;2.78;;;;;;;11.41;30.03;97955.19;5022382;28;20061;-60
2022/03/23 11:26:55;;;;;;;3.40;2.78;;;;;;;11.15;30.33;97896.56;5022750;28;20538;-67
2022/03/23 11:29:22;;;;;;;4.07;2.75;;;;;;;10.80;30.51;97863.09;5022460;28;20521;-58
2022/03/23 11:31:51;;;;;;;4.15;2.83;;;;;;;11.09;30.40;97892.44;5016391;28;20050;-66
2022/03/23 11:34:20;;;;;;;6.38;2.80;;;;;;;11.17;30.35;97894.25;5002578;28;20045;-60
2022/03/23 11:36:50;;;;;;;4.35;3.17;;;;;;;11.83;30.44;97928.59;5003494;28;20571;-58
2022/03/23 11:39:19;;;;;;;5.15;2.67;;;;;;;11.90;28.59;97945.47;5004398;28;20061;-67
2022/03/23 11:41:46;;;;;;;7.28;3.25;;;;;;;11.92;28.50;97943.09;5004439;28;20050;-66
2022/03/23 11:44:17;;;;;;;3.55;2.47;;;;;;;11.70;28.98;97943.72;5002556;28;20046;-66
2022/03/23 11:46:45;;;;;;;4.38;2.67;;;;;;;11.98;28.14;97931.38;5003631;28;20457;-59
2022/03/23 11:49:30;;;;;;;6.57;3.00;;;;;;;11.94;28.42;97929.69;5002093;28;20488;-58
2022/03/23 11:51:59;;;;;;;5.43;2.72;;;;;;;11.87;29.09;97923.97;5001779;28;20491;-67
2022/03/23 11:57:23;;;;;;;6.70;2.33;;;;;;;10.63;29.34;97803.25;5015951;28;20060;-56
2022/03/23 11:59:49;;;;;;;3.15;2.78;;;;;;;11.42;30.09;97935.41;5012694;28;20057;-59
2022/03/23 12:02:18;;;;;;;3.55;2.78;;;;;;;11.37;29.55;97920.97;5022819;28;20057;-66
2022/03/23 12:04:46;;;;;;;2.47;2.15;;;;;;;10.80;29.61;97895.53;5012926;28;20077;-60
2022/03/23 12:07:13;;;;;;;5.07;3.42;;;;;;;11.00;29.91;97914.75;5008987;28;20089;-65
2022/03/23 12:09:42;;;;;;;4.28;2.53;;;;;;;11.06;30.65;97912.56;5016035;28;20134;-56
2022/03/23 12:12:28;;;;;;;5.40;3.10;;;;;;;11.23;30.95;97865.09;5004365;28;20432;-57